createdAt,value
2022-12-12T00:01:21.288Z,-2.10
2022-12-12T00:03:49.181Z,-2.20
2022-12-12T00:06:17.105Z,-2.10
2022-12-12T00:08:45.095Z,-2.10
2022-12-12T00:11:13.268Z,-2.10
2022-12-12T00:13:41.534Z,-2.10
2022-12-12T00:16:11.282Z,-2.10
2022-12-12T00:18:39.709Z,-2.10
2022-12-12T00:21:12.303Z,-2.10
2022-12-12T00:23:40.125Z,-2.10
2022-12-12T00:26:10.385Z,-2.00
2022-12-12T00:28:38.188Z,-2.10
2022-12-12T00:31:06.556Z,-2.00
2022-12-12T00:33:35.751Z,-2.10
2022-12-12T00:36:03.616Z,-2.00
2022-12-12T00:38:31.534Z,-2.10
2022-12-12T00:41:00.557Z,-2.10
2022-12-12T00:43:28.975Z,-2.10
2022-12-12T00:45:59.526Z,-2.10
2022-12-12T00:48:27.614Z,-2.10
2022-12-12T00:50:57.140Z,-2.10
2022-12-12T00:53:25.568Z,-2.20
2022-12-12T00:55:57.317Z,-2.20
2022-12-12T00:58:25.366Z,-2.20
2022-12-12T01:00:54.184Z,-2.20
2022-12-12T01:03:22.649Z,-2.20
2022-12-12T01:05:50.717Z,-2.30
2022-12-12T01:08:19.995Z,-2.30
2022-12-12T01:10:47.905Z,-2.30
2022-12-12T01:13:15.708Z,-2.30
2022-12-12T01:15:43.593Z,-2.30
2022-12-12T01:18:11.407Z,-2.40
2022-12-12T01:20:39.353Z,-2.40
2022-12-12T01:23:07.138Z,-2.40
2022-12-12T01:25:36.305Z,-2.30
2022-12-12T01:28:04.801Z,-2.40
2022-12-12T01:30:32.818Z,-2.40
2022-12-12T01:33:00.784Z,-2.50
2022-12-12T01:35:28.872Z,-2.60
2022-12-12T01:37:56.657Z,-2.60
2022-12-12T01:40:26.749Z,-2.60
2022-12-12T01:42:56.521Z,-2.60
2022-12-12T01:46:02.496Z,-2.60
2022-12-12T01:48:33.459Z,-2.60
2022-12-12T01:51:04.055Z,-2.60
2022-12-12T01:53:34.154Z,-2.60
2022-12-12T01:56:03.794Z,-2.60
2022-12-12T01:58:33.460Z,-2.60
2022-12-12T02:01:02.041Z,-2.70
2022-12-12T02:03:30.112Z,-2.70
2022-12-12T02:06:01.236Z,-2.70
2022-12-12T02:08:30.586Z,-2.60
2022-12-12T02:10:58.410Z,-2.60
2022-12-12T02:13:29.718Z,-2.60
2022-12-12T02:16:07.573Z,-2.60
2022-12-12T02:18:45.806Z,-2.60
2022-12-12T02:21:21.642Z,-2.60
2022-12-12T02:24:30.823Z,-2.60
2022-12-12T02:27:20.980Z,-2.50
2022-12-12T02:30:11.622Z,-2.50
2022-12-12T02:33:14.790Z,-2.50
2022-12-12T02:35:54.932Z,-2.50
2022-12-12T02:38:28.927Z,-2.50
2022-12-12T02:41:06.808Z,-2.50
2022-12-12T02:43:40.738Z,-2.50
2022-12-12T02:46:14.368Z,-2.40
2022-12-12T02:48:49.464Z,-2.30
2022-12-12T02:51:17.839Z,-2.40
2022-12-12T02:53:45.629Z,-2.50
2022-12-12T02:56:45.851Z,-2.40
2022-12-12T02:59:18.775Z,-2.40
2022-12-12T03:02:08.001Z,-2.40
2022-12-12T03:05:03.870Z,-2.40
2022-12-12T03:07:50.327Z,-2.40
2022-12-12T03:10:32.989Z,-2.40
2022-12-12T03:13:12.904Z,-2.40
2022-12-12T03:15:49.607Z,-2.40
2022-12-12T03:18:27.926Z,-2.40
2022-12-12T03:21:03.034Z,-2.40
2022-12-12T03:23:35.597Z,-2.30
2022-12-12T03:26:11.422Z,-2.40
2022-12-12T03:28:43.486Z,-2.40
2022-12-12T03:31:13.190Z,-2.30
2022-12-12T03:33:44.465Z,-2.40
2022-12-12T03:36:17.306Z,-2.40
2022-12-12T03:38:56.917Z,-2.40
2022-12-12T03:41:29.402Z,-2.50
2022-12-12T03:44:02.912Z,-2.50
2022-12-12T03:46:34.561Z,-2.40
2022-12-12T03:49:06.283Z,-2.40
2022-12-12T03:51:40.310Z,-2.40
2022-12-12T03:54:13.322Z,-2.50
2022-12-12T03:56:47.385Z,-2.50
2022-12-12T03:59:26.943Z,-2.40
2022-12-12T04:02:00.800Z,-2.50
2022-12-12T04:04:32.205Z,-2.60
2022-12-12T04:07:07.077Z,-2.60
2022-12-12T04:09:52.794Z,-2.50
2022-12-12T04:12:42.333Z,-2.50
2022-12-12T04:15:25.665Z,-2.60
2022-12-12T04:18:01.383Z,-2.50
2022-12-12T04:20:55.425Z,-2.60
2022-12-12T04:23:33.428Z,-2.60
2022-12-12T04:26:24.048Z,-2.70
2022-12-12T04:29:03.433Z,-2.70
2022-12-12T04:31:34.199Z,-2.70
2022-12-12T04:34:06.891Z,-2.70
2022-12-12T04:36:36.201Z,-2.80
2022-12-12T04:39:07.478Z,-2.80
2022-12-12T04:41:38.095Z,-2.90
2022-12-12T04:44:09.092Z,-2.80
2022-12-12T04:46:37.892Z,-2.80
2022-12-12T04:49:15.245Z,-2.70
2022-12-12T04:51:46.417Z,-2.70
2022-12-12T04:54:23.229Z,-2.70
2022-12-12T04:56:55.364Z,-2.80
2022-12-12T04:59:23.877Z,-2.80
2022-12-12T05:01:56.530Z,-2.80
2022-12-12T05:04:30.156Z,-2.80
2022-12-12T05:07:01.922Z,-2.70
2022-12-12T05:09:31.222Z,-2.80
2022-12-12T05:11:59.266Z,-2.80
2022-12-12T05:14:27.220Z,-2.80
2022-12-12T05:17:00.382Z,-2.80
2022-12-12T05:19:28.271Z,-2.80
2022-12-12T05:21:56.018Z,-2.90
2022-12-12T05:24:23.807Z,-2.80
2022-12-12T05:26:53.035Z,-2.80
2022-12-12T05:29:20.806Z,-2.80
2022-12-12T05:31:48.603Z,-2.80
2022-12-12T05:34:16.398Z,-2.70
2022-12-12T05:36:44.181Z,-2.70
2022-12-12T05:39:11.974Z,-2.90
2022-12-12T05:41:39.853Z,-2.90
2022-12-12T05:44:09.108Z,-2.80
2022-12-12T05:46:37.069Z,-2.90
2022-12-12T05:49:05.698Z,-2.80
2022-12-12T05:51:33.541Z,-2.80
2022-12-12T05:54:01.351Z,-2.80
2022-12-12T05:56:29.211Z,-2.80
2022-12-12T05:58:56.997Z,-3.00
2022-12-12T06:01:26.146Z,-2.90
2022-12-12T06:03:54.079Z,-2.90
2022-12-12T06:06:21.865Z,-2.80
2022-12-12T06:08:49.763Z,-2.70
2022-12-12T06:11:17.544Z,-2.70
2022-12-12T06:13:45.306Z,-2.70
2022-12-12T06:16:17.998Z,-2.80
2022-12-12T06:18:52.014Z,-2.80
2022-12-12T06:21:20.835Z,-3.00
2022-12-12T06:23:48.972Z,-2.90
2022-12-12T06:26:18.227Z,-3.00
2022-12-12T06:28:46.677Z,-3.00
2022-12-12T06:31:15.655Z,-3.00
2022-12-12T06:33:44.756Z,-3.00
2022-12-12T06:36:16.663Z,-3.00
2022-12-12T06:38:44.541Z,-3.00
2022-12-12T06:41:14.552Z,-3.20
2022-12-12T06:43:42.708Z,-3.20
2022-12-12T06:46:15.453Z,-3.10
2022-12-12T06:48:43.478Z,-3.20
2022-12-12T06:51:15.078Z,-3.00
2022-12-12T06:53:43.206Z,-3.10
2022-12-12T06:56:14.057Z,-3.10
2022-12-12T06:58:41.950Z,-3.00
2022-12-12T07:01:11.921Z,-3.00
2022-12-12T07:03:40.458Z,-3.00
2022-12-12T07:06:08.753Z,-3.10
2022-12-12T07:08:38.461Z,-3.10
2022-12-12T07:11:07.350Z,-3.20
2022-12-12T07:13:35.498Z,-3.20
2022-12-12T07:16:03.361Z,-3.30
2022-12-12T07:18:31.154Z,-3.50
2022-12-12T07:20:59.119Z,-3.40
2022-12-12T07:23:27.260Z,-3.60
2022-12-12T07:25:56.499Z,-3.90
2022-12-12T07:28:24.741Z,-3.80
2022-12-12T07:30:52.632Z,-3.70
2022-12-12T07:33:21.491Z,-3.80
2022-12-12T07:35:49.390Z,-3.80
2022-12-12T07:38:17.206Z,-3.70
2022-12-12T07:40:45.461Z,-3.70
2022-12-12T07:43:14.593Z,-3.60
2022-12-12T07:45:45.681Z,-3.70
2022-12-12T07:48:13.507Z,-3.70
2022-12-12T07:50:41.846Z,-3.60
2022-12-12T07:53:10.095Z,-3.60
2022-12-12T07:55:40.488Z,-3.60
2022-12-12T07:58:08.253Z,-3.50
2022-12-12T08:00:37.481Z,-3.50
2022-12-12T08:03:05.273Z,-3.40
2022-12-12T08:05:33.263Z,-3.40
2022-12-12T08:08:01.122Z,-3.40
2022-12-12T08:10:28.941Z,-3.40
2022-12-12T08:12:56.698Z,-3.40
2022-12-12T08:15:24.480Z,-3.50
2022-12-12T08:17:53.655Z,-3.50
2022-12-12T08:20:22.722Z,-3.40
2022-12-12T08:22:50.550Z,-3.50
2022-12-12T08:25:18.493Z,-3.40
2022-12-12T08:27:46.252Z,-3.40
2022-12-12T08:30:14.454Z,-3.30
2022-12-12T08:32:42.258Z,-3.40
2022-12-12T08:35:12.173Z,-3.30
2022-12-12T08:37:40.137Z,-3.20
2022-12-12T08:40:09.005Z,-3.20
2022-12-12T08:42:36.765Z,-3.20
2022-12-12T08:45:05.589Z,-3.30
2022-12-12T08:47:33.391Z,-3.20
2022-12-12T08:50:01.165Z,-3.10
2022-12-12T08:52:30.361Z,-3.10
2022-12-12T08:54:58.303Z,-3.00
2022-12-12T08:57:26.298Z,-3.00
2022-12-12T08:59:54.205Z,-2.90
2022-12-12T09:02:22.080Z,-2.80
2022-12-12T09:04:49.955Z,-2.80
2022-12-12T09:07:17.716Z,-2.70
2022-12-12T09:09:46.855Z,-2.70
2022-12-12T09:12:15.375Z,-2.60
2022-12-12T09:14:43.189Z,-2.50
2022-12-12T09:17:10.977Z,-2.50
2022-12-12T09:19:38.858Z,-2.50
2022-12-12T09:22:06.712Z,-2.40
2022-12-12T09:24:34.520Z,-2.30
2022-12-12T09:27:04.358Z,-2.30
2022-12-12T09:29:32.277Z,-2.30
2022-12-12T09:32:06.163Z,-2.40
2022-12-12T09:34:34.006Z,-2.30
2022-12-12T09:37:02.601Z,-2.20
2022-12-12T09:39:30.824Z,-2.20
2022-12-12T09:41:58.654Z,-2.10
2022-12-12T09:44:27.854Z,-2.00
2022-12-12T09:46:58.269Z,-2.00
2022-12-12T09:49:41.476Z,-1.90
2022-12-12T09:52:14.464Z,-1.90
2022-12-12T09:54:42.282Z,-1.90
2022-12-12T09:57:24.647Z,-1.80
2022-12-12T09:59:59.083Z,-1.90
2022-12-12T10:02:43.741Z,-2.20
2022-12-12T10:05:22.906Z,-1.90
2022-12-12T10:08:00.375Z,-1.80
2022-12-12T10:10:34.477Z,-1.80
2022-12-12T10:13:05.372Z,-1.60
2022-12-12T10:15:38.164Z,-1.70
2022-12-12T10:18:09.355Z,-1.50
2022-12-12T10:20:44.589Z,-1.50
2022-12-12T10:23:20.678Z,-1.40
2022-12-12T10:25:52.993Z,-1.20
2022-12-12T10:28:24.456Z,-1.10
2022-12-12T10:31:06.148Z,-1.10
2022-12-12T10:33:47.209Z,-1.10
2022-12-12T10:36:22.075Z,-1.00
2022-12-12T10:39:04.275Z,-1.00
2022-12-12T10:41:41.631Z,-0.90
2022-12-12T10:44:20.355Z,-0.90
2022-12-12T10:46:59.802Z,-0.90
2022-12-12T10:49:28.152Z,-0.80
2022-12-12T10:51:57.237Z,-0.80
2022-12-12T10:54:27.873Z,-0.70
2022-12-12T10:57:14.020Z,-0.70
2022-12-12T10:59:47.761Z,-0.70
2022-12-12T11:02:28.723Z,-0.70
2022-12-12T11:05:02.521Z,-0.60
2022-12-12T11:07:30.622Z,-0.60
2022-12-12T11:10:02.125Z,-0.60
2022-12-12T11:12:34.739Z,-0.50
2022-12-12T11:15:06.969Z,-0.40
2022-12-12T11:17:36.237Z,-0.40
2022-12-12T11:20:17.701Z,-0.40
2022-12-12T11:22:45.742Z,-0.50
2022-12-12T11:25:25.626Z,-0.60
2022-12-12T11:27:55.225Z,-0.60
2022-12-12T11:30:34.771Z,-0.60
2022-12-12T11:33:06.463Z,-0.70
2022-12-12T11:35:41.161Z,-0.70
2022-12-12T11:38:19.944Z,-0.80
2022-12-12T11:40:58.182Z,-0.70
2022-12-12T11:43:28.127Z,-0.80
2022-12-12T11:46:01.926Z,-0.70
2022-12-12T11:48:35.459Z,-0.60
2022-12-12T11:51:03.650Z,-0.60
2022-12-12T11:53:34.386Z,-0.70
2022-12-12T11:56:31.072Z,-0.70
2022-12-12T11:59:12.401Z,-0.70
2022-12-12T12:01:49.305Z,-1.00
2022-12-12T12:04:37.067Z,-1.00
2022-12-12T12:07:21.621Z,-0.80
2022-12-12T12:09:54.936Z,-0.80
2022-12-12T12:12:29.376Z,-0.60
2022-12-12T12:15:08.340Z,-0.50
2022-12-12T12:17:58.546Z,-0.40
2022-12-12T12:20:40.553Z,-0.50
2022-12-12T12:23:20.925Z,-0.40
2022-12-12T12:25:56.944Z,-0.30
2022-12-12T12:28:48.784Z,-0.40
2022-12-12T12:31:25.588Z,-0.30
2022-12-12T12:34:08.734Z,-0.30
2022-12-12T12:36:52.251Z,-0.20
2022-12-12T12:39:34.584Z,-0.40
2022-12-12T12:42:16.017Z,-0.30
2022-12-12T12:44:50.600Z,-0.30
2022-12-12T12:47:27.948Z,-0.20
2022-12-12T12:50:00.013Z,-0.10
2022-12-12T12:52:35.611Z,0.00
2022-12-12T12:55:05.370Z,0.20
2022-12-12T12:57:37.205Z,0.20
2022-12-12T13:00:09.870Z,0.30
2022-12-12T13:02:47.023Z,0.10
2022-12-12T13:05:21.175Z,-0.30
2022-12-12T13:07:58.313Z,-0.20
2022-12-12T13:10:29.143Z,0.10
2022-12-12T13:13:00.653Z,0.10
2022-12-12T13:15:32.144Z,0.20
2022-12-12T13:18:03.597Z,0.10
2022-12-12T13:20:34.863Z,-0.10
2022-12-12T13:23:37.842Z,-0.20
2022-12-12T13:26:13.728Z,0.00
2022-12-12T13:28:46.714Z,0.00
2022-12-12T13:31:39.231Z,0.00
2022-12-12T13:34:09.835Z,-0.10
2022-12-12T13:36:40.212Z,-0.10
2022-12-12T13:39:23.136Z,-0.30
2022-12-12T13:42:01.124Z,-0.30
2022-12-12T13:44:38.639Z,-0.50
2022-12-12T13:47:15.652Z,-0.50
2022-12-12T13:49:51.151Z,-0.60
2022-12-12T13:52:26.616Z,-0.60
2022-12-12T13:55:18.053Z,-0.50
2022-12-12T13:58:07.875Z,-0.60
2022-12-12T14:00:36.895Z,-0.60
2022-12-12T14:03:24.158Z,-0.70
2022-12-12T14:05:53.325Z,-0.90
2022-12-12T14:08:29.396Z,-0.90
2022-12-12T14:11:03.502Z,-0.80
2022-12-12T14:13:45.294Z,-0.80
2022-12-12T14:16:22.824Z,-0.90
2022-12-12T14:19:09.306Z,-1.00
2022-12-12T14:21:46.521Z,-1.00
2022-12-12T14:24:56.921Z,-1.00
2022-12-12T14:27:58.506Z,-1.20
2022-12-12T14:30:41.127Z,-1.10
2022-12-12T14:33:24.230Z,-1.40
2022-12-12T14:35:59.620Z,-1.30
2022-12-12T14:38:35.484Z,-1.30
2022-12-12T14:41:06.321Z,-1.40
2022-12-12T14:43:38.048Z,-1.40
2022-12-12T14:46:17.128Z,-1.40
2022-12-12T14:48:45.316Z,-1.50
2022-12-12T14:51:25.847Z,-1.40
2022-12-12T14:53:58.427Z,-1.50
2022-12-12T14:56:29.399Z,-1.50
2022-12-12T14:59:00.465Z,-1.60
2022-12-12T15:01:33.406Z,-1.60
2022-12-12T15:04:04.505Z,-1.60
2022-12-12T15:06:35.340Z,-1.60
2022-12-12T15:09:18.336Z,-1.70
2022-12-12T15:11:46.818Z,-1.70
2022-12-12T15:14:20.986Z,-1.80
2022-12-12T15:16:54.035Z,-1.70
2022-12-12T15:19:27.346Z,-1.80
2022-12-12T15:21:55.495Z,-1.90
2022-12-12T15:24:25.354Z,-1.90
2022-12-12T15:26:55.821Z,-2.00
2022-12-12T15:29:27.283Z,-2.00
2022-12-12T15:32:03.227Z,-2.00
2022-12-12T15:34:42.225Z,-2.10
2022-12-12T15:37:29.456Z,-2.10
2022-12-12T15:40:20.955Z,-2.00
2022-12-12T15:42:53.630Z,-2.00
2022-12-12T15:45:26.474Z,-2.10
2022-12-12T15:47:56.760Z,-2.30
2022-12-12T15:50:28.100Z,-2.20
2022-12-12T15:53:05.549Z,-2.30
2022-12-12T15:55:33.977Z,-2.20
2022-12-12T15:58:01.846Z,-2.30
2022-12-12T16:00:39.596Z,-2.30
2022-12-12T16:03:22.514Z,-2.30
2022-12-12T16:06:06.430Z,-2.40
2022-12-12T16:08:40.268Z,-2.30
2022-12-12T16:11:32.473Z,-2.50
2022-12-12T16:14:01.090Z,-2.50
2022-12-12T16:16:39.037Z,-2.60
2022-12-12T16:19:27.256Z,-2.60
2022-12-12T16:21:55.625Z,-2.70
2022-12-12T16:24:26.095Z,-2.70
2022-12-12T16:26:57.097Z,-2.70
2022-12-12T16:29:24.840Z,-2.70
2022-12-12T16:31:52.796Z,-2.70
2022-12-12T16:34:22.129Z,-2.60
2022-12-12T16:36:50.262Z,-2.80
2022-12-12T16:39:18.004Z,-2.70
2022-12-12T16:41:45.942Z,-2.90
2022-12-12T16:44:14.018Z,-2.90
2022-12-12T16:46:41.821Z,-3.00
2022-12-12T16:49:15.032Z,-3.10
2022-12-12T16:51:44.543Z,-3.20
2022-12-12T16:54:16.917Z,-3.10
2022-12-12T16:56:50.359Z,-3.10
2022-12-12T16:59:18.210Z,-3.10
2022-12-12T17:01:46.225Z,-3.10
2022-12-12T17:04:22.155Z,-3.30
2022-12-12T17:06:51.706Z,-3.40
2022-12-12T17:09:19.749Z,-3.40
2022-12-12T17:11:47.850Z,-3.40
2022-12-12T17:14:18.877Z,-3.50
2022-12-12T17:16:46.754Z,-3.40
2022-12-12T17:19:14.832Z,-3.40
2022-12-12T17:21:42.658Z,-3.30
2022-12-12T17:24:11.905Z,-3.40
2022-12-12T17:26:40.081Z,-3.40
2022-12-12T17:29:17.260Z,-3.40
2022-12-12T17:31:45.667Z,-3.60
2022-12-12T17:34:13.504Z,-3.50
2022-12-12T17:36:41.316Z,-3.50
2022-12-12T17:39:09.189Z,-3.60
2022-12-12T17:41:38.319Z,-3.80
2022-12-12T17:44:06.328Z,-3.70
2022-12-12T17:46:34.156Z,-3.60
2022-12-12T17:49:03.233Z,-3.70
2022-12-12T17:51:31.067Z,-3.70
2022-12-12T17:54:00.093Z,-3.70
2022-12-12T17:56:28.237Z,-3.70
2022-12-12T17:58:57.354Z,-3.70
2022-12-12T18:01:28.011Z,-3.70
2022-12-12T18:03:57.297Z,-3.70
2022-12-12T18:06:26.664Z,-3.70
2022-12-12T18:08:54.704Z,-3.80
2022-12-12T18:11:24.583Z,-3.80
2022-12-12T18:13:53.727Z,-4.00
2022-12-12T18:16:24.583Z,-4.00
2022-12-12T18:18:53.416Z,-4.10
2022-12-12T18:21:51.758Z,-4.00
2022-12-12T18:24:11.382Z,-4.00
2022-12-12T18:26:39.305Z,-4.10
2022-12-12T18:29:08.773Z,-4.00
2022-12-12T18:31:38.004Z,-4.10
2022-12-12T18:34:06.902Z,-4.10
2022-12-12T18:36:34.958Z,-4.10
2022-12-12T18:39:05.180Z,-4.20
2022-12-12T18:41:33.975Z,-4.20
2022-12-12T18:44:07.049Z,-4.20
2022-12-12T18:46:42.376Z,-4.10
2022-12-12T18:49:13.544Z,-4.10
2022-12-12T18:51:41.400Z,-4.10
2022-12-12T18:54:14.197Z,-4.10
2022-12-12T18:56:43.741Z,-4.10
2022-12-12T18:59:11.913Z,-4.10
2022-12-12T19:01:41.331Z,-4.10
2022-12-12T19:04:13.365Z,-4.10
2022-12-12T19:06:43.439Z,-4.10
2022-12-12T19:09:14.394Z,-4.10
2022-12-12T19:11:42.473Z,-4.10
2022-12-12T19:14:12.380Z,-4.10
2022-12-12T19:16:42.208Z,-4.10
2022-12-12T19:19:10.225Z,-4.10
2022-12-12T19:21:38.374Z,-4.10
2022-12-12T19:24:10.494Z,-4.00
2022-12-12T19:26:40.403Z,-4.00
2022-12-12T19:29:11.730Z,-4.10
2022-12-12T19:31:41.112Z,-4.10
2022-12-12T19:34:11.386Z,-4.20
2022-12-12T19:36:39.645Z,-4.30
2022-12-12T19:39:08.810Z,-4.20
2022-12-12T19:41:36.817Z,-4.10
2022-12-12T19:44:08.573Z,-4.10
2022-12-12T19:46:36.758Z,-4.10
2022-12-12T19:49:08.679Z,-4.20
2022-12-12T19:51:39.180Z,-4.30
2022-12-12T19:54:09.206Z,-4.20
2022-12-12T19:56:40.573Z,-4.20
2022-12-12T19:59:09.589Z,-4.30
2022-12-12T20:01:38.762Z,-4.30
2022-12-12T20:04:12.186Z,-4.40
2022-12-12T20:06:45.158Z,-4.30
2022-12-12T20:09:14.829Z,-4.30
2022-12-12T20:11:45.021Z,-4.30
2022-12-12T20:14:15.106Z,-4.40
2022-12-12T20:16:43.303Z,-4.30
2022-12-12T20:19:13.522Z,-4.40
2022-12-12T20:22:00.354Z,-4.40
2022-12-12T20:24:29.921Z,-4.50
2022-12-12T20:26:59.347Z,-4.50
2022-12-12T20:29:27.177Z,-4.60
2022-12-12T20:31:54.986Z,-4.60
2022-12-12T20:34:25.074Z,-4.60
2022-12-12T20:36:55.680Z,-4.70
2022-12-12T20:39:24.662Z,-4.60
2022-12-12T20:41:53.448Z,-4.60
2022-12-12T20:44:22.360Z,-4.60
2022-12-12T20:46:50.172Z,-4.70
2022-12-12T20:49:19.747Z,-4.80
2022-12-12T20:51:57.950Z,-4.90
2022-12-12T20:54:27.704Z,-4.90
2022-12-12T20:56:57.121Z,-5.00
2022-12-12T20:59:26.066Z,-4.90
2022-12-12T21:01:54.541Z,-4.90
2022-12-12T21:04:24.043Z,-4.80
2022-12-12T21:06:53.233Z,-4.90
2022-12-12T21:09:25.769Z,-4.90
2022-12-12T21:11:55.290Z,-4.90
2022-12-12T21:14:23.477Z,-4.90
2022-12-12T21:16:51.309Z,-4.90
2022-12-12T21:19:19.691Z,-4.80
2022-12-12T21:21:47.885Z,-4.80
2022-12-12T21:24:18.473Z,-4.90
2022-12-12T21:26:46.662Z,-5.00
2022-12-12T21:29:15.272Z,-5.00
2022-12-12T21:31:50.215Z,-4.90
2022-12-12T21:34:19.871Z,-5.00
2022-12-12T21:36:50.262Z,-5.00
2022-12-12T21:39:19.397Z,-5.00
2022-12-12T21:41:47.517Z,-5.00
2022-12-12T21:44:15.293Z,-4.90
2022-12-12T21:46:43.916Z,-5.00
2022-12-12T21:49:26.521Z,-4.90
2022-12-12T21:51:55.908Z,-4.90
2022-12-12T21:54:25.664Z,-4.90
2022-12-12T21:56:53.978Z,-4.90
2022-12-12T21:59:21.782Z,-5.00
2022-12-12T22:01:49.652Z,-4.90
2022-12-12T22:04:17.585Z,-5.00
2022-12-12T22:06:46.878Z,-5.00
2022-12-12T22:09:14.750Z,-5.00
2022-12-12T22:11:48.184Z,-5.10
2022-12-12T22:14:18.602Z,-5.20
2022-12-12T22:16:46.409Z,-5.10
2022-12-12T22:19:15.703Z,-5.10
2022-12-12T22:21:45.339Z,-5.10
2022-12-12T22:24:13.141Z,-5.20
2022-12-12T22:26:44.885Z,-5.10
2022-12-12T22:29:15.691Z,-5.10
2022-12-12T22:31:44.742Z,-5.30
2022-12-12T22:34:14.486Z,-5.30
2022-12-12T22:36:43.005Z,-5.30
2022-12-12T22:39:15.482Z,-5.30
2022-12-12T22:41:44.945Z,-5.30
2022-12-12T22:44:15.737Z,-5.30
2022-12-12T22:46:44.760Z,-5.30
2022-12-12T22:49:14.814Z,-5.30
2022-12-12T22:51:43.715Z,-5.30
2022-12-12T22:54:12.287Z,-5.20
2022-12-12T22:56:43.903Z,-5.30
2022-12-12T22:59:13.748Z,-5.30
2022-12-12T23:01:42.109Z,-5.30
2022-12-12T23:04:11.595Z,-5.30
2022-12-12T23:06:39.658Z,-5.30
2022-12-12T23:09:09.936Z,-5.30
2022-12-12T23:11:37.727Z,-5.40
2022-12-12T23:14:08.577Z,-5.30
2022-12-12T23:16:37.456Z,-5.50
2022-12-12T23:19:06.699Z,-5.50
2022-12-12T23:21:36.443Z,-5.40
2022-12-12T23:24:04.858Z,-5.50
2022-12-12T23:26:35.066Z,-5.60
2022-12-12T23:29:03.528Z,-5.60
2022-12-12T23:31:34.920Z,-5.70
2022-12-12T23:34:05.778Z,-5.70
2022-12-12T23:36:33.884Z,-5.70
2022-12-12T23:39:03.491Z,-5.80
2022-12-12T23:41:31.621Z,-5.60
2022-12-12T23:43:59.605Z,-5.60
2022-12-12T23:46:31.838Z,-5.70
2022-12-12T23:49:02.674Z,-5.70
2022-12-12T23:51:33.071Z,-5.70
2022-12-12T23:54:02.021Z,-5.80
2022-12-12T23:56:30.106Z,-5.90
2022-12-12T23:58:58.669Z,-5.90
